createdAt,value
2019-01-25T00:02:08.179Z,98366.64
2019-01-25T00:04:38.506Z,98369.14
2019-01-25T00:07:08.688Z,98375.35
2019-01-25T00:09:39.220Z,98369.87
2019-01-25T00:12:09.498Z,98367.37
2019-01-25T00:14:40.144Z,98364.41
2019-01-25T00:17:10.549Z,98367.98
2019-01-25T00:19:41.180Z,98371.80
2019-01-25T00:22:11.451Z,98363.94
2019-01-25T00:24:41.733Z,98371.80
2019-01-25T00:27:12.368Z,98380.28
2019-01-25T00:29:42.981Z,98372.02
2019-01-25T00:32:13.263Z,98370.52
2019-01-25T00:34:43.744Z,98383.51
2019-01-25T00:37:14.004Z,98378.27
2019-01-25T00:39:45.201Z,98378.37
2019-01-25T00:42:15.381Z,98376.87
2019-01-25T00:44:45.702Z,98382.88
2019-01-25T00:47:16.291Z,98384.34
2019-01-25T00:49:46.627Z,98390.78
2019-01-25T00:52:16.911Z,98395.31
2019-01-25T00:54:47.163Z,98392.80
2019-01-25T00:57:17.465Z,98387.67
2019-01-25T00:59:47.700Z,98402.86
2019-01-25T01:02:17.992Z,98402.97
2019-01-25T01:04:48.261Z,98401.63
2019-01-25T01:07:19.133Z,98405.70
2019-01-25T01:09:49.325Z,98402.87
2019-01-25T01:12:19.658Z,98408.67
2019-01-25T01:14:51.542Z,98413.06
2019-01-25T01:17:21.873Z,98414.86
2019-01-25T01:19:52.460Z,98416.27
2019-01-25T01:22:23.090Z,98418.67
2019-01-25T01:24:53.366Z,98422.28
2019-01-25T01:27:23.632Z,98427.13
2019-01-25T01:29:53.891Z,98427.73
2019-01-25T01:32:24.183Z,98430.22
2019-01-25T01:34:54.449Z,98430.48
2019-01-25T01:37:24.734Z,98446.39
2019-01-25T01:39:54.930Z,98444.03
2019-01-25T01:42:25.481Z,98442.52
2019-01-25T01:44:56.112Z,98445.78
2019-01-25T01:47:26.350Z,98448.95
2019-01-25T01:49:57.277Z,98449.80
2019-01-25T01:52:27.594Z,98461.18
2019-01-25T01:54:57.862Z,98453.00
2019-01-25T01:57:28.128Z,98460.55
2019-01-25T01:59:58.422Z,98450.51
2019-01-25T02:02:28.676Z,98454.37
2019-01-25T02:04:59.091Z,98450.98
2019-01-25T02:07:29.374Z,98454.81
2019-01-25T02:09:59.621Z,98455.27
2019-01-25T02:12:29.845Z,98450.43
2019-01-25T02:15:00.077Z,98447.56
2019-01-25T02:17:30.454Z,98443.08
2019-01-25T02:20:00.711Z,98449.33
2019-01-25T02:22:31.001Z,98447.22
2019-01-25T02:25:01.325Z,98446.83
2019-01-25T02:27:31.620Z,98444.75
2019-01-25T02:30:02.371Z,98444.78
2019-01-25T02:32:33.104Z,98439.08
2019-01-25T02:35:03.285Z,98444.30
2019-01-25T02:37:33.485Z,98439.73
2019-01-25T02:40:04.122Z,98442.62
2019-01-25T02:42:34.390Z,98437.36
2019-01-25T02:45:04.909Z,98432.05
2019-01-25T02:47:35.719Z,98437.19
2019-01-25T02:50:08.172Z,98442.36
2019-01-25T02:52:38.758Z,98447.04
2019-01-25T02:55:09.856Z,98455.25
2019-01-25T02:57:40.339Z,98451.05
2019-01-25T03:00:14.700Z,98442.14
2019-01-25T03:02:45.107Z,98444.50
2019-01-25T03:05:17.034Z,98440.30
2019-01-25T03:07:47.293Z,98433.17
2019-01-25T03:10:17.974Z,98437.92
2019-01-25T03:12:49.538Z,98434.55
2019-01-25T03:15:21.968Z,98431.29
2019-01-25T03:19:36.292Z,98430.59
2019-01-25T03:22:06.835Z,98433.31
2019-01-25T03:24:37.374Z,98430.75
2019-01-25T03:27:07.672Z,98431.61
2019-01-25T03:29:38.317Z,98434.59
2019-01-25T03:32:08.641Z,98435.98
2019-01-25T03:34:39.176Z,98434.81
2019-01-25T03:37:09.568Z,98430.05
2019-01-25T03:39:40.132Z,98433.84
2019-01-25T03:42:10.447Z,98432.38
2019-01-25T03:44:40.990Z,98429.47
2019-01-25T03:47:11.299Z,98433.05
2019-01-25T03:49:41.572Z,98428.77
2019-01-25T03:52:12.163Z,98431.60
2019-01-25T03:54:42.427Z,98433.58
2019-01-25T03:57:12.710Z,98432.36
2019-01-25T03:59:42.988Z,98430.59
2019-01-25T04:02:13.186Z,98436.71
2019-01-25T04:04:43.456Z,98447.20
2019-01-25T04:07:13.765Z,98448.87
2019-01-25T04:09:44.332Z,98446.16
2019-01-25T04:12:14.962Z,98452.67
2019-01-25T04:14:45.594Z,98449.99
2019-01-25T04:17:15.881Z,98450.81
2019-01-25T04:19:46.104Z,98448.96
2019-01-25T04:22:16.671Z,98456.05
2019-01-25T04:24:47.301Z,98456.40
2019-01-25T04:27:17.654Z,98464.12
2019-01-25T04:29:48.026Z,98458.75
2019-01-25T04:32:18.356Z,98469.41
2019-01-25T04:34:48.609Z,98464.75
2019-01-25T04:37:19.352Z,98465.33
2019-01-25T04:39:49.980Z,98458.51
2019-01-25T04:42:21.397Z,98464.55
2019-01-25T04:44:53.958Z,98460.92
2019-01-25T04:47:28.704Z,98468.61
2019-01-25T04:49:58.931Z,98470.64
2019-01-25T04:52:29.284Z,98470.55
2019-01-25T04:55:01.034Z,98480.00
2019-01-25T04:57:32.141Z,98478.41
2019-01-25T05:00:02.678Z,98481.23
2019-01-25T05:02:33.014Z,98488.70
2019-01-25T05:05:03.662Z,98481.41
2019-01-25T05:07:35.635Z,98477.58
2019-01-25T05:10:06.992Z,98488.41
2019-01-25T05:12:38.624Z,98486.67
2019-01-25T05:15:09.257Z,98482.56
2019-01-25T05:17:41.998Z,98474.16
2019-01-25T05:20:13.335Z,98465.70
2019-01-25T05:22:45.700Z,98468.44
2019-01-25T05:25:22.085Z,98470.20
2019-01-25T05:27:52.842Z,98478.97
2019-01-25T05:30:23.403Z,98484.53
2019-01-25T05:32:54.435Z,98486.13
2019-01-25T05:35:24.783Z,98488.88
2019-01-25T05:37:55.071Z,98501.98
2019-01-25T05:40:26.567Z,98507.00
2019-01-25T05:42:57.036Z,98504.09
2019-01-25T05:45:27.351Z,98507.06
2019-01-25T05:47:57.970Z,98512.60
2019-01-25T05:50:28.222Z,98509.50
2019-01-25T05:52:58.886Z,98507.36
2019-01-25T05:55:30.836Z,98498.70
2019-01-25T05:58:03.081Z,98494.85
2019-01-25T06:00:35.891Z,98488.81
2019-01-25T06:03:10.314Z,98490.34
2019-01-25T06:05:40.992Z,98497.08
2019-01-25T06:08:32.481Z,98487.10
2019-01-25T06:11:10.988Z,98482.50
2019-01-25T06:13:46.501Z,98499.17
2019-01-25T06:16:17.322Z,98514.09
2019-01-25T06:18:47.939Z,98516.14
2019-01-25T06:21:18.496Z,98518.16
2019-01-25T06:23:51.152Z,98524.44
2019-01-25T06:26:21.416Z,98527.42
2019-01-25T06:28:52.786Z,98541.00
2019-01-25T06:31:23.395Z,98534.02
2019-01-25T06:33:54.057Z,98537.91
2019-01-25T06:36:24.451Z,98535.71
2019-01-25T06:38:55.109Z,98534.83
2019-01-25T06:41:25.742Z,98544.30
2019-01-25T06:43:56.374Z,98541.56
2019-01-25T06:46:27.692Z,98537.13
2019-01-25T06:48:58.989Z,98543.94
2019-01-25T06:51:29.609Z,98546.50
2019-01-25T06:54:00.226Z,98539.11
2019-01-25T06:56:30.857Z,98545.19
2019-01-25T06:59:18.797Z,98557.88
2019-01-25T07:01:56.395Z,98570.02
2019-01-25T07:04:26.718Z,98560.77
2019-01-25T07:06:56.970Z,98559.09
2019-01-25T07:09:27.290Z,98559.91
2019-01-25T07:11:57.898Z,98558.70
2019-01-25T07:14:28.269Z,98560.61
2019-01-25T07:16:58.792Z,98564.38
2019-01-25T07:19:29.545Z,98570.55
2019-01-25T07:22:00.120Z,98570.30
2019-01-25T07:24:30.747Z,98578.35
2019-01-25T07:27:02.097Z,98583.67
2019-01-25T07:29:33.572Z,98591.19
2019-01-25T07:32:04.385Z,98595.75
2019-01-25T07:34:34.768Z,98590.80
2019-01-25T07:37:04.995Z,98587.59
2019-01-25T07:39:35.362Z,98591.10
2019-01-25T07:42:05.726Z,98603.22
2019-01-25T07:44:36.039Z,98608.81
2019-01-25T07:47:06.491Z,98615.36
2019-01-25T07:49:37.088Z,98615.16
2019-01-25T07:52:07.650Z,98620.48
2019-01-25T07:54:38.138Z,98615.89
2019-01-25T07:57:08.381Z,98629.61
2019-01-25T07:59:38.890Z,98631.50
2019-01-25T08:02:09.495Z,98631.67
2019-01-25T08:04:39.811Z,98637.29
2019-01-25T08:07:10.570Z,98636.08
2019-01-25T08:09:40.921Z,98640.17
2019-01-25T08:12:11.434Z,98641.71
2019-01-25T08:14:42.063Z,98643.15
2019-01-25T08:17:12.643Z,98644.95
2019-01-25T08:19:42.872Z,98655.17
2019-01-25T08:22:13.106Z,98649.51
2019-01-25T08:24:43.638Z,98646.63
2019-01-25T08:27:13.890Z,98644.56
2019-01-25T08:29:44.958Z,98648.75
2019-01-25T08:32:15.657Z,98646.25
2019-01-25T08:34:45.957Z,98649.70
2019-01-25T08:37:16.175Z,98657.98
2019-01-25T08:39:51.169Z,98656.69
2019-01-25T08:42:21.881Z,98657.27
2019-01-25T08:44:52.154Z,98652.76
2019-01-25T08:47:22.678Z,98654.22
2019-01-25T08:49:57.783Z,98656.96
2019-01-25T08:52:25.017Z,98652.51
2019-01-25T08:54:55.618Z,98655.64
2019-01-25T08:57:28.195Z,98649.30
2019-01-25T08:59:58.380Z,98643.52
2019-01-25T09:02:28.651Z,98642.16
2019-01-25T09:04:59.245Z,98647.34
2019-01-25T09:07:29.499Z,98663.02
2019-01-25T09:10:00.154Z,98672.63
2019-01-25T09:12:30.794Z,98676.34
2019-01-25T09:15:01.106Z,98669.12
2019-01-25T09:17:31.948Z,98666.80
2019-01-25T09:20:02.259Z,98667.36
2019-01-25T09:22:32.552Z,98660.86
2019-01-25T09:25:02.839Z,98673.17
2019-01-25T09:27:33.133Z,98677.45
2019-01-25T09:30:03.414Z,98675.13
2019-01-25T09:32:33.686Z,98675.72
2019-01-25T09:35:06.923Z,98670.03
2019-01-25T09:37:37.269Z,98670.62
2019-01-25T09:40:09.934Z,98678.99
2019-01-25T09:42:40.226Z,98682.16
2019-01-25T09:45:10.952Z,98678.41
2019-01-25T09:47:41.423Z,98676.55
2019-01-25T09:50:14.282Z,98673.95
2019-01-25T09:52:44.611Z,98677.77
2019-01-25T09:55:17.270Z,98675.80
2019-01-25T09:57:48.688Z,98683.96
2019-01-25T10:00:25.184Z,98682.48
2019-01-25T10:02:56.179Z,98682.79
2019-01-25T10:05:26.994Z,98689.94
2019-01-25T10:07:58.922Z,98689.16
2019-01-25T10:10:29.534Z,98690.20
2019-01-25T10:13:00.351Z,98699.23
2019-01-25T10:15:30.668Z,98696.48
2019-01-25T10:18:00.968Z,98698.06
2019-01-25T10:20:32.195Z,98695.02
2019-01-25T10:23:02.480Z,98694.83
2019-01-25T10:25:32.928Z,98701.50
2019-01-25T10:28:03.168Z,98703.33
2019-01-25T10:30:33.503Z,98705.87
2019-01-25T10:33:04.526Z,98706.08
2019-01-25T10:39:05.011Z,98707.84
2019-01-25T10:41:35.611Z,98713.91
2019-01-25T10:44:08.026Z,98709.93
2019-01-25T10:46:38.249Z,98710.48
2019-01-25T10:49:08.535Z,98705.20
2019-01-25T10:51:39.127Z,98705.48
2019-01-25T10:54:09.598Z,98700.57
2019-01-25T10:56:41.884Z,98698.56
2019-01-25T10:59:11.860Z,98702.63
2019-01-25T11:01:42.033Z,98699.09
2019-01-25T11:04:12.934Z,98688.53
2019-01-25T11:06:43.120Z,98687.89
2019-01-25T11:09:15.127Z,98682.76
2019-01-25T11:11:45.609Z,98686.06
2019-01-25T11:14:15.864Z,98672.67
2019-01-25T11:16:46.101Z,98667.19
2019-01-25T11:19:16.421Z,98667.53
2019-01-25T11:21:46.691Z,98665.52
2019-01-25T11:24:17.271Z,98664.94
2019-01-25T11:26:49.600Z,98665.06
2019-01-25T11:29:20.281Z,98647.95
2019-01-25T11:31:50.733Z,98645.41
2019-01-25T11:34:21.050Z,98637.14
2019-01-25T11:36:51.415Z,98638.52
2019-01-25T11:39:21.683Z,98633.66
2019-01-25T11:41:51.870Z,98629.29
2019-01-25T11:44:22.737Z,98619.64
2019-01-25T11:46:53.328Z,98626.53
2019-01-25T11:49:23.623Z,98631.04
2019-01-25T11:51:53.946Z,98618.39
2019-01-25T11:54:24.319Z,98628.36
2019-01-25T11:56:54.977Z,98622.39
2019-01-25T11:59:25.359Z,98628.47
2019-01-25T12:01:55.587Z,98626.85
2019-01-25T12:04:26.134Z,98631.52
2019-01-25T12:06:56.924Z,98622.69
2019-01-25T12:09:27.236Z,98625.06
2019-01-25T12:11:58.054Z,98622.86
2019-01-25T12:14:28.972Z,98624.23
2019-01-25T12:16:59.974Z,98626.31
2019-01-25T12:19:30.605Z,98626.38
2019-01-25T12:22:02.566Z,98637.95
2019-01-25T12:24:33.041Z,98639.34
2019-01-25T12:27:03.644Z,98642.67
2019-01-25T12:29:38.044Z,98638.66
2019-01-25T12:32:08.577Z,98639.13
2019-01-25T12:34:39.152Z,98639.31
2019-01-25T12:37:10.418Z,98635.84
2019-01-25T12:39:40.851Z,98633.09
2019-01-25T12:42:11.304Z,98637.83
2019-01-25T12:44:41.898Z,98629.82
2019-01-25T12:47:12.329Z,98624.03
2019-01-25T12:49:43.211Z,98619.41
2019-01-25T12:52:13.733Z,98627.69
2019-01-25T12:54:44.563Z,98637.05
2019-01-25T12:57:15.825Z,98634.13
2019-01-25T12:59:46.270Z,98629.09
2019-01-25T13:02:16.877Z,98622.19
2019-01-25T13:04:48.097Z,98628.50
2019-01-25T13:07:19.778Z,98628.84
2019-01-25T13:09:50.384Z,98622.70
2019-01-25T13:12:25.219Z,98628.73
2019-01-25T13:14:54.009Z,98627.34
2019-01-25T13:17:25.022Z,98631.98
2019-01-25T13:19:55.711Z,98631.58
2019-01-25T13:22:26.114Z,98630.44
2019-01-25T13:24:57.180Z,98624.83
2019-01-25T13:27:28.364Z,98625.25
2019-01-25T13:29:59.321Z,98621.34
2019-01-25T13:32:29.965Z,98617.30
2019-01-25T13:35:00.667Z,98611.89
2019-01-25T13:37:31.915Z,98618.66
2019-01-25T13:40:02.233Z,98617.19
2019-01-25T13:42:33.636Z,98613.73
2019-01-25T13:45:04.540Z,98626.28
2019-01-25T13:47:36.588Z,98624.61
2019-01-25T13:50:09.181Z,98627.30
2019-01-25T13:52:39.822Z,98624.98
2019-01-25T13:55:12.225Z,98624.02
2019-01-25T13:57:43.136Z,98631.67
2019-01-25T14:00:17.576Z,98633.63
2019-01-25T14:02:48.631Z,98630.86
2019-01-25T14:05:20.285Z,98636.77
2019-01-25T14:07:51.316Z,98634.41
2019-01-25T14:10:24.548Z,98635.05
2019-01-25T14:12:55.161Z,98635.02
2019-01-25T14:15:25.907Z,98624.14
2019-01-25T14:17:56.440Z,98623.45
2019-01-25T14:20:28.664Z,98625.98
2019-01-25T14:22:59.562Z,98627.33
2019-01-25T14:25:30.803Z,98619.86
2019-01-25T14:28:01.390Z,98619.38
2019-01-25T14:30:38.195Z,98620.64
2019-01-25T14:33:09.746Z,98621.52
2019-01-25T14:35:41.385Z,98614.16
2019-01-25T14:38:16.649Z,98614.23
2019-01-25T14:40:47.684Z,98612.00
2019-01-25T14:43:18.341Z,98608.88
2019-01-25T14:45:49.527Z,98612.83
2019-01-25T14:48:20.260Z,98597.41
2019-01-25T14:50:51.179Z,98602.81
2019-01-25T14:53:21.491Z,98599.58
2019-01-25T14:55:52.262Z,98596.23
2019-01-25T14:58:23.193Z,98597.20
2019-01-25T15:00:54.833Z,98599.40
2019-01-25T15:03:25.149Z,98600.05
2019-01-25T15:05:55.757Z,98596.24
2019-01-25T15:08:26.572Z,98610.31
2019-01-25T15:10:57.669Z,98611.12
2019-01-25T15:13:28.529Z,98608.02
2019-01-25T15:15:59.418Z,98607.16
2019-01-25T15:18:29.999Z,98618.48
2019-01-25T15:21:01.253Z,98635.31
2019-01-25T15:23:31.614Z,98644.17
2019-01-25T15:26:02.716Z,98647.75
2019-01-25T15:28:34.086Z,98652.54
2019-01-25T15:31:05.081Z,98651.41
2019-01-25T15:33:36.424Z,98647.04
2019-01-25T15:36:08.963Z,98637.89
2019-01-25T15:38:41.644Z,98640.39
2019-01-25T15:41:24.690Z,98647.80
2019-01-25T15:43:55.580Z,98648.73
2019-01-25T15:46:27.298Z,98646.52
2019-01-25T15:48:58.757Z,98651.91
2019-01-25T15:51:30.051Z,98646.72
2019-01-25T15:54:02.261Z,98647.61
2019-01-25T15:56:32.762Z,98639.99
2019-01-25T15:59:06.433Z,98645.63
2019-01-25T16:01:37.842Z,98646.34
2019-01-25T16:04:09.992Z,98646.88
2019-01-25T16:06:41.479Z,98655.44
2019-01-25T16:09:16.603Z,98655.29
2019-01-25T16:11:47.986Z,98655.92
2019-01-25T16:14:20.737Z,98661.45
2019-01-25T16:16:54.424Z,98658.93
2019-01-25T16:19:25.560Z,98661.38
2019-01-25T16:21:57.663Z,98660.14
2019-01-25T16:24:29.675Z,98662.56
2019-01-25T16:27:01.391Z,98670.11
2019-01-25T16:29:34.330Z,98671.32
2019-01-25T16:32:06.810Z,98663.48
2019-01-25T16:34:38.692Z,98662.64
2019-01-25T16:37:09.904Z,98675.41
2019-01-25T16:39:41.670Z,98675.39
2019-01-25T16:42:13.588Z,98670.48
2019-01-25T16:44:45.662Z,98669.44
2019-01-25T16:47:18.579Z,98677.51
2019-01-25T16:49:50.445Z,98682.13
2019-01-25T16:52:22.760Z,98682.89
2019-01-25T16:54:53.963Z,98674.42
2019-01-25T16:57:27.548Z,98674.00
2019-01-25T16:59:59.683Z,98675.03
2019-01-25T17:02:32.809Z,98679.86
2019-01-25T17:05:06.295Z,98687.31
2019-01-25T17:07:36.788Z,98694.72
2019-01-25T17:10:07.617Z,98697.02
2019-01-25T17:12:38.258Z,98681.97
2019-01-25T17:15:09.506Z,98682.64
2019-01-25T17:17:41.262Z,98679.78
2019-01-25T17:20:17.806Z,98672.56
2019-01-25T17:22:44.535Z,98664.77
2019-01-25T17:25:15.318Z,98661.63
2019-01-25T17:27:46.856Z,98668.13
2019-01-25T17:30:26.104Z,98675.62
2019-01-25T17:32:59.174Z,98678.90
2019-01-25T17:35:33.492Z,98667.58
2019-01-25T17:38:07.229Z,98670.36
2019-01-25T17:40:46.940Z,98671.59
2019-01-25T17:43:17.950Z,98668.16
2019-01-25T17:45:50.258Z,98671.38
2019-01-25T17:48:23.825Z,98681.08
2019-01-25T17:50:55.987Z,98686.33
2019-01-25T17:53:28.683Z,98692.28
2019-01-25T17:56:01.294Z,98688.84
2019-01-25T17:58:36.489Z,98684.91
2019-01-25T18:01:10.285Z,98686.89
2019-01-25T18:03:45.147Z,98676.19
2019-01-25T18:06:18.962Z,98677.00
2019-01-25T18:08:51.749Z,98689.06
2019-01-25T18:11:24.802Z,98693.56
2019-01-25T18:13:58.042Z,98690.55
2019-01-25T18:16:33.052Z,98694.77
2019-01-25T18:19:06.835Z,98697.64
2019-01-25T18:21:40.748Z,98702.70
2019-01-25T18:24:14.885Z,98709.34
2019-01-25T18:26:49.311Z,98708.34
2019-01-25T18:29:44.803Z,98707.90
2019-01-25T18:32:27.291Z,98713.77
2019-01-25T18:35:01.903Z,98713.84
2019-01-25T18:37:43.042Z,98720.07
2019-01-25T18:40:17.842Z,98716.25
2019-01-25T18:42:53.320Z,98710.53
2019-01-25T18:45:27.769Z,98710.45
2019-01-25T18:48:03.080Z,98714.11
2019-01-25T18:50:36.892Z,98714.23
2019-01-25T18:53:10.607Z,98710.80
2019-01-25T18:55:44.164Z,98714.52
2019-01-25T18:58:18.618Z,98721.55
2019-01-25T19:00:54.349Z,98719.73
2019-01-25T19:03:28.332Z,98716.25
2019-01-25T19:06:03.719Z,98711.26
2019-01-25T19:08:39.504Z,98713.50
2019-01-25T19:11:13.711Z,98704.14
2019-01-25T19:13:49.629Z,98707.16
2019-01-25T19:16:24.877Z,98712.68
2019-01-25T19:19:02.745Z,98717.39
2019-01-25T19:21:37.231Z,98713.67
2019-01-25T19:24:12.473Z,98713.67
2019-01-25T19:26:47.628Z,98707.09
2019-01-25T19:29:23.464Z,98710.06
2019-01-25T19:31:57.955Z,98725.80
2019-01-25T19:34:31.517Z,98715.28
2019-01-25T19:37:05.440Z,98720.97
2019-01-25T19:39:41.423Z,98720.54
2019-01-25T19:42:17.975Z,98722.20
2019-01-25T19:44:54.343Z,98727.34
2019-01-25T19:47:29.255Z,98720.98
2019-01-25T19:50:05.944Z,98716.16
2019-01-25T19:52:41.787Z,98724.05
2019-01-25T19:55:18.862Z,98721.50
2019-01-25T19:57:53.866Z,98713.31
2019-01-25T20:00:38.408Z,98714.75
2019-01-25T20:03:15.758Z,98705.59
2019-01-25T20:05:50.971Z,98700.28
2019-01-25T20:08:26.013Z,98703.69
2019-01-25T20:11:01.104Z,98701.05
2019-01-25T20:13:39.314Z,98696.89
2019-01-25T20:16:15.439Z,98698.88
2019-01-25T20:18:51.546Z,98705.00
2019-01-25T20:21:27.555Z,98697.02
2019-01-25T20:24:04.513Z,98692.56
2019-01-25T20:26:41.153Z,98696.17
2019-01-25T20:29:15.873Z,98701.43
2019-01-25T20:31:51.463Z,98698.58
2019-01-25T20:34:25.354Z,98696.63
2019-01-25T20:36:59.726Z,98698.80
2019-01-25T20:39:34.210Z,98699.94
2019-01-25T20:42:09.124Z,98712.38
2019-01-25T20:44:45.902Z,98718.41
2019-01-25T20:47:20.504Z,98717.81
2019-01-25T20:49:56.375Z,98726.90
2019-01-25T20:52:30.830Z,98735.34
2019-01-25T20:55:06.924Z,98736.27
2019-01-25T20:57:40.658Z,98735.34
2019-01-25T21:00:26.631Z,98741.03
2019-01-25T21:03:00.953Z,98732.72
2019-01-25T21:05:35.416Z,98731.14
2019-01-25T21:08:11.811Z,98734.23
2019-01-25T21:10:48.027Z,98736.40
2019-01-25T21:13:21.586Z,98731.14
2019-01-25T21:15:56.419Z,98739.72
2019-01-25T21:18:30.943Z,98739.84
2019-01-25T21:21:04.863Z,98745.66
2019-01-25T21:23:39.060Z,98743.95
2019-01-25T21:26:12.915Z,98738.36
2019-01-25T21:28:47.552Z,98747.44
2019-01-25T21:31:20.722Z,98745.73
2019-01-25T21:33:54.143Z,98749.61
2019-01-25T21:36:30.211Z,98744.68
2019-01-25T21:39:06.828Z,98738.39
2019-01-25T21:41:40.753Z,98729.02
2019-01-25T21:44:16.063Z,98727.74
2019-01-25T21:46:50.755Z,98729.57
2019-01-25T21:49:25.119Z,98730.63
2019-01-25T21:51:58.543Z,98723.92
2019-01-25T21:54:31.955Z,98722.61
2019-01-25T21:57:04.741Z,98719.46
2019-01-25T21:59:38.115Z,98711.61
2019-01-25T22:02:11.611Z,98716.83
2019-01-25T22:04:44.272Z,98718.88
2019-01-25T22:07:15.322Z,98718.49
2019-01-25T22:09:46.518Z,98720.19
2019-01-25T22:12:20.598Z,98708.77
2019-01-25T22:14:53.185Z,98715.73
2019-01-25T22:17:25.740Z,98712.59
2019-01-25T22:19:59.119Z,98719.55
2019-01-25T22:22:30.191Z,98711.95
2019-01-25T22:25:01.678Z,98708.34
2019-01-25T22:27:32.619Z,98712.50
2019-01-25T22:30:03.099Z,98717.30
2019-01-25T22:32:33.653Z,98737.63
2019-01-25T22:35:04.985Z,98739.33
2019-01-25T22:37:35.516Z,98751.30
2019-01-25T22:40:08.204Z,98753.13
2019-01-25T22:42:38.574Z,98753.72
2019-01-25T22:45:12.155Z,98746.67
2019-01-25T22:47:43.047Z,98750.92
2019-01-25T22:50:19.495Z,98755.25
2019-01-25T22:52:50.053Z,98738.56
2019-01-25T22:55:21.036Z,98736.86
2019-01-25T22:57:51.746Z,98732.73
2019-01-25T23:01:03.390Z,98729.64
2019-01-25T23:04:34.463Z,98729.84
2019-01-25T23:07:10.252Z,98731.38
2019-01-25T23:09:52.389Z,98736.52
2019-01-25T23:12:22.634Z,98731.22
2019-01-25T23:14:53.277Z,98725.95
2019-01-25T23:17:24.217Z,98725.88
2019-01-25T23:19:54.612Z,98728.84
2019-01-25T23:22:24.832Z,98722.80
2019-01-25T23:24:56.738Z,98718.59
2019-01-25T23:27:27.358Z,98720.45
2019-01-25T23:29:57.989Z,98708.04
2019-01-25T23:32:28.389Z,98717.82
2019-01-25T23:34:58.634Z,98711.44
2019-01-25T23:37:28.835Z,98717.64
2019-01-25T23:39:59.060Z,98705.45
2019-01-25T23:42:29.345Z,98703.08
2019-01-25T23:44:59.971Z,98701.45
2019-01-25T23:47:30.460Z,98695.77
2019-01-25T23:50:00.704Z,98699.92
2019-01-25T23:52:31.840Z,98702.97
2019-01-25T23:55:02.051Z,98704.29
2019-01-25T23:57:32.309Z,98701.66
